sensor_id;sensor_type;location;lat;lon;timestamp;P1;durP1;ratioP1;P2;durP2;ratioP2
73776;SDS011;62088;50.240;2.696;2023-02-20T00:00:50;15.25;;;5.07;;
73776;SDS011;62088;50.240;2.696;2023-02-20T00:03:17;13.77;;;6.07;;
73776;SDS011;62088;50.240;2.696;2023-02-20T00:05:45;21.55;;;7.40;;
73776;SDS011;62088;50.240;2.696;2023-02-20T00:08:12;18.60;;;5.78;;
73776;SDS011;62088;50.240;2.696;2023-02-20T00:10:39;23.73;;;6.32;;
73776;SDS011;62088;50.240;2.696;2023-02-20T00:13:06;24.45;;;7.53;;
73776;SDS011;62088;50.240;2.696;2023-02-20T00:15:33;19.92;;;6.43;;
73776;SDS011;62088;50.240;2.696;2023-02-20T00:18:00;20.67;;;7.07;;
73776;SDS011;62088;50.240;2.696;2023-02-20T00:20:27;18.67;;;5.68;;
73776;SDS011;62088;50.240;2.696;2023-02-20T00:22:55;18.85;;;7.13;;
73776;SDS011;62088;50.240;2.696;2023-02-20T00:25:22;18.35;;;7.68;;
73776;SDS011;62088;50.240;2.696;2023-02-20T00:27:49;20.90;;;7.00;;
73776;SDS011;62088;50.240;2.696;2023-02-20T00:30:18;18.48;;;6.05;;
73776;SDS011;62088;50.240;2.696;2023-02-20T00:32:47;21.05;;;7.55;;
73776;SDS011;62088;50.240;2.696;2023-02-20T00:35:16;22.50;;;6.97;;
73776;SDS011;62088;50.240;2.696;2023-02-20T00:37:45;15.50;;;5.75;;
73776;SDS011;62088;50.240;2.696;2023-02-20T00:40:13;19.70;;;7.00;;
73776;SDS011;62088;50.240;2.696;2023-02-20T00:42:41;15.68;;;5.57;;
73776;SDS011;62088;50.240;2.696;2023-02-20T00:45:08;14.93;;;6.32;;
73776;SDS011;62088;50.240;2.696;2023-02-20T00:47:37;15.18;;;6.35;;
73776;SDS011;62088;50.240;2.696;2023-02-20T00:50:05;21.25;;;6.88;;
73776;SDS011;62088;50.240;2.696;2023-02-20T00:52:32;17.17;;;6.35;;
73776;SDS011;62088;50.240;2.696;2023-02-20T00:55:01;19.23;;;6.03;;
73776;SDS011;62088;50.240;2.696;2023-02-20T00:57:29;19.95;;;6.72;;
73776;SDS011;62088;50.240;2.696;2023-02-20T00:59:56;17.25;;;7.00;;
73776;SDS011;62088;50.240;2.696;2023-02-20T01:02:23;23.15;;;7.53;;
73776;SDS011;62088;50.240;2.696;2023-02-20T01:04:50;16.05;;;5.75;;
73776;SDS011;62088;50.240;2.696;2023-02-20T01:07:17;26.20;;;7.10;;
73776;SDS011;62088;50.240;2.696;2023-02-20T01:09:44;21.63;;;6.03;;
73776;SDS011;62088;50.240;2.696;2023-02-20T01:12:13;24.73;;;7.07;;
73776;SDS011;62088;50.240;2.696;2023-02-20T01:14:41;21.55;;;6.30;;
73776;SDS011;62088;50.240;2.696;2023-02-20T01:17:08;22.42;;;6.35;;
73776;SDS011;62088;50.240;2.696;2023-02-20T01:19:37;19.17;;;6.93;;
73776;SDS011;62088;50.240;2.696;2023-02-20T01:22:04;31.02;;;8.82;;
73776;SDS011;62088;50.240;2.696;2023-02-20T01:24:34;23.70;;;6.20;;
73776;SDS011;62088;50.240;2.696;2023-02-20T01:27:01;25.10;;;6.38;;
73776;SDS011;62088;50.240;2.696;2023-02-20T01:29:28;22.33;;;7.43;;
73776;SDS011;62088;50.240;2.696;2023-02-20T01:31:57;14.35;;;5.13;;
73776;SDS011;62088;50.240;2.696;2023-02-20T01:34:25;25.67;;;6.07;;
73776;SDS011;62088;50.240;2.696;2023-02-20T01:36:54;28.65;;;7.03;;
73776;SDS011;62088;50.240;2.696;2023-02-20T01:39:25;24.35;;;6.97;;
73776;SDS011;62088;50.240;2.696;2023-02-20T01:41:55;22.25;;;6.40;;
73776;SDS011;62088;50.240;2.696;2023-02-20T01:44:27;23.50;;;6.32;;
73776;SDS011;62088;50.240;2.696;2023-02-20T01:46:58;23.65;;;4.85;;
73776;SDS011;62088;50.240;2.696;2023-02-20T01:52:26;20.55;;;5.85;;
73776;SDS011;62088;50.240;2.696;2023-02-20T01:55:03;15.90;;;4.43;;
73776;SDS011;62088;50.240;2.696;2023-02-20T01:57:37;19.92;;;5.25;;
73776;SDS011;62088;50.240;2.696;2023-02-20T02:00:07;23.48;;;4.75;;
73776;SDS011;62088;50.240;2.696;2023-02-20T02:02:41;18.50;;;4.68;;
73776;SDS011;62088;50.240;2.696;2023-02-20T02:05:11;16.05;;;5.13;;
73776;SDS011;62088;50.240;2.696;2023-02-20T02:07:39;21.05;;;4.75;;
73776;SDS011;62088;50.240;2.696;2023-02-20T02:10:08;18.92;;;4.35;;
73776;SDS011;62088;50.240;2.696;2023-02-20T02:12:38;21.08;;;4.68;;
73776;SDS011;62088;50.240;2.696;2023-02-20T02:15:18;14.25;;;3.58;;
73776;SDS011;62088;50.240;2.696;2023-02-20T02:21:06;19.42;;;4.32;;
73776;SDS011;62088;50.240;2.696;2023-02-20T02:43:52;17.75;;;4.95;;
73776;SDS011;62088;50.240;2.696;2023-02-20T02:46:29;18.25;;;5.10;;
73776;SDS011;62088;50.240;2.696;2023-02-20T02:49:10;16.77;;;5.28;;
73776;SDS011;62088;50.240;2.696;2023-02-20T02:51:46;16.85;;;4.53;;
73776;SDS011;62088;50.240;2.696;2023-02-20T02:54:17;24.52;;;5.47;;
73776;SDS011;62088;50.240;2.696;2023-02-20T02:56:47;20.20;;;5.32;;
73776;SDS011;62088;50.240;2.696;2023-02-20T02:59:25;20.23;;;4.30;;
73776;SDS011;62088;50.240;2.696;2023-02-20T03:01:59;10.77;;;4.43;;
73776;SDS011;62088;50.240;2.696;2023-02-20T03:04:30;15.45;;;4.53;;
73776;SDS011;62088;50.240;2.696;2023-02-20T03:06:59;23.10;;;5.53;;
73776;SDS011;62088;50.240;2.696;2023-02-20T03:12:06;15.07;;;3.83;;
73776;SDS011;62088;50.240;2.696;2023-02-20T03:14:45;19.65;;;5.22;;
73776;SDS011;62088;50.240;2.696;2023-02-20T03:17:39;16.77;;;4.10;;
73776;SDS011;62088;50.240;2.696;2023-02-20T03:20:14;11.45;;;3.88;;
73776;SDS011;62088;50.240;2.696;2023-02-20T03:25:43;15.35;;;4.53;;
73776;SDS011;62088;50.240;2.696;2023-02-20T03:28:17;14.68;;;4.15;;
73776;SDS011;62088;50.240;2.696;2023-02-20T03:33:24;12.23;;;3.90;;
73776;SDS011;62088;50.240;2.696;2023-02-20T03:36:31;13.07;;;3.72;;
73776;SDS011;62088;50.240;2.696;2023-02-20T03:39:32;19.60;;;4.90;;
73776;SDS011;62088;50.240;2.696;2023-02-20T03:42:21;12.27;;;3.65;;
73776;SDS011;62088;50.240;2.696;2023-02-20T03:45:17;14.27;;;4.25;;
73776;SDS011;62088;50.240;2.696;2023-02-20T03:47:49;13.45;;;3.97;;
73776;SDS011;62088;50.240;2.696;2023-02-20T03:50:21;16.10;;;4.28;;
73776;SDS011;62088;50.240;2.696;2023-02-20T03:52:49;14.48;;;4.57;;
73776;SDS011;62088;50.240;2.696;2023-02-20T03:55:16;25.05;;;4.35;;
73776;SDS011;62088;50.240;2.696;2023-02-20T03:57:45;16.63;;;3.50;;
73776;SDS011;62088;50.240;2.696;2023-02-20T04:00:27;20.98;;;3.92;;
73776;SDS011;62088;50.240;2.696;2023-02-20T04:02:59;17.55;;;3.35;;
73776;SDS011;62088;50.240;2.696;2023-02-20T04:05:35;9.80;;;3.05;;
73776;SDS011;62088;50.240;2.696;2023-02-20T04:08:15;11.63;;;4.00;;
73776;SDS011;62088;50.240;2.696;2023-02-20T04:11:08;13.07;;;3.55;;
73776;SDS011;62088;50.240;2.696;2023-02-20T04:13:36;16.60;;;3.42;;
73776;SDS011;62088;50.240;2.696;2023-02-20T04:16:05;15.50;;;3.63;;
73776;SDS011;62088;50.240;2.696;2023-02-20T04:18:33;14.75;;;3.80;;
73776;SDS011;62088;50.240;2.696;2023-02-20T04:21:03;11.18;;;3.78;;
73776;SDS011;62088;50.240;2.696;2023-02-20T04:23:38;14.25;;;4.10;;
73776;SDS011;62088;50.240;2.696;2023-02-20T04:26:09;14.32;;;3.38;;
73776;SDS011;62088;50.240;2.696;2023-02-20T04:28:42;15.02;;;3.85;;
73776;SDS011;62088;50.240;2.696;2023-02-20T04:31:11;13.13;;;3.00;;
73776;SDS011;62088;50.240;2.696;2023-02-20T04:33:41;18.13;;;3.50;;
73776;SDS011;62088;50.240;2.696;2023-02-20T04:36:14;21.38;;;4.05;;
73776;SDS011;62088;50.240;2.696;2023-02-20T04:38:41;13.40;;;4.47;;
73776;SDS011;62088;50.240;2.696;2023-02-20T04:41:12;15.90;;;4.70;;
73776;SDS011;62088;50.240;2.696;2023-02-20T04:43:39;15.95;;;4.93;;
73776;SDS011;62088;50.240;2.696;2023-02-20T04:46:06;14.60;;;4.32;;
73776;SDS011;62088;50.240;2.696;2023-02-20T04:48:34;11.50;;;3.92;;
73776;SDS011;62088;50.240;2.696;2023-02-20T04:51:02;18.63;;;4.75;;
73776;SDS011;62088;50.240;2.696;2023-02-20T04:53:31;15.48;;;4.82;;
73776;SDS011;62088;50.240;2.696;2023-02-20T04:55:58;13.93;;;4.53;;
73776;SDS011;62088;50.240;2.696;2023-02-20T04:58:26;16.90;;;4.68;;
73776;SDS011;62088;50.240;2.696;2023-02-20T05:00:59;12.85;;;5.47;;
73776;SDS011;62088;50.240;2.696;2023-02-20T05:03:26;14.77;;;4.07;;
73776;SDS011;62088;50.240;2.696;2023-02-20T05:05:53;8.52;;;3.30;;
73776;SDS011;62088;50.240;2.696;2023-02-20T05:08:20;11.50;;;4.00;;
73776;SDS011;62088;50.240;2.696;2023-02-20T05:10:47;12.50;;;3.67;;
73776;SDS011;62088;50.240;2.696;2023-02-20T05:13:14;11.07;;;4.25;;
73776;SDS011;62088;50.240;2.696;2023-02-20T05:15:41;12.73;;;3.80;;
73776;SDS011;62088;50.240;2.696;2023-02-20T05:18:08;15.15;;;3.90;;
73776;SDS011;62088;50.240;2.696;2023-02-20T05:20:35;14.40;;;3.92;;
73776;SDS011;62088;50.240;2.696;2023-02-20T05:23:21;15.73;;;3.70;;
73776;SDS011;62088;50.240;2.696;2023-02-20T05:25:48;16.45;;;4.88;;
73776;SDS011;62088;50.240;2.696;2023-02-20T05:28:15;15.63;;;3.92;;
73776;SDS011;62088;50.240;2.696;2023-02-20T05:30:42;15.65;;;4.85;;
73776;SDS011;62088;50.240;2.696;2023-02-20T05:33:09;10.25;;;3.53;;
73776;SDS011;62088;50.240;2.696;2023-02-20T05:35:36;15.65;;;4.28;;
73776;SDS011;62088;50.240;2.696;2023-02-20T05:38:06;13.00;;;4.32;;
73776;SDS011;62088;50.240;2.696;2023-02-20T05:40:33;17.17;;;5.13;;
73776;SDS011;62088;50.240;2.696;2023-02-20T05:43:00;16.83;;;5.40;;
73776;SDS011;62088;50.240;2.696;2023-02-20T05:45:27;11.70;;;3.78;;
73776;SDS011;62088;50.240;2.696;2023-02-20T05:47:54;12.68;;;4.10;;
73776;SDS011;62088;50.240;2.696;2023-02-20T05:50:21;20.15;;;5.50;;
73776;SDS011;62088;50.240;2.696;2023-02-20T05:52:48;12.77;;;4.30;;
73776;SDS011;62088;50.240;2.696;2023-02-20T05:55:15;13.55;;;4.90;;
73776;SDS011;62088;50.240;2.696;2023-02-20T05:57:42;8.07;;;3.63;;
73776;SDS011;62088;50.240;2.696;2023-02-20T06:00:09;10.38;;;3.88;;
73776;SDS011;62088;50.240;2.696;2023-02-20T06:02:37;9.57;;;3.85;;
73776;SDS011;62088;50.240;2.696;2023-02-20T06:05:04;11.90;;;4.32;;
73776;SDS011;62088;50.240;2.696;2023-02-20T06:07:33;16.63;;;4.60;;
73776;SDS011;62088;50.240;2.696;2023-02-20T06:10:01;12.25;;;4.07;;
73776;SDS011;62088;50.240;2.696;2023-02-20T06:12:29;15.63;;;4.45;;
73776;SDS011;62088;50.240;2.696;2023-02-20T06:14:56;15.32;;;4.90;;
73776;SDS011;62088;50.240;2.696;2023-02-20T06:17:23;15.10;;;5.15;;
73776;SDS011;62088;50.240;2.696;2023-02-20T06:19:50;13.55;;;6.07;;
73776;SDS011;62088;50.240;2.696;2023-02-20T06:22:17;12.32;;;4.68;;
73776;SDS011;62088;50.240;2.696;2023-02-20T06:24:45;12.52;;;4.32;;
73776;SDS011;62088;50.240;2.696;2023-02-20T06:27:13;18.08;;;5.30;;
73776;SDS011;62088;50.240;2.696;2023-02-20T06:29:42;10.43;;;4.07;;
73776;SDS011;62088;50.240;2.696;2023-02-20T06:32:09;16.48;;;4.63;;
73776;SDS011;62088;50.240;2.696;2023-02-20T06:34:36;11.43;;;5.35;;
73776;SDS011;62088;50.240;2.696;2023-02-20T06:37:03;15.20;;;5.28;;
73776;SDS011;62088;50.240;2.696;2023-02-20T06:39:31;16.02;;;5.78;;
73776;SDS011;62088;50.240;2.696;2023-02-20T06:41:58;13.23;;;5.53;;
73776;SDS011;62088;50.240;2.696;2023-02-20T06:44:25;12.73;;;5.13;;
73776;SDS011;62088;50.240;2.696;2023-02-20T06:46:53;10.88;;;4.78;;
73776;SDS011;62088;50.240;2.696;2023-02-20T06:49:20;13.52;;;6.32;;
73776;SDS011;62088;50.240;2.696;2023-02-20T06:51:51;13.30;;;4.97;;
73776;SDS011;62088;50.240;2.696;2023-02-20T06:54:19;12.90;;;5.45;;
73776;SDS011;62088;50.240;2.696;2023-02-20T06:56:47;20.60;;;5.93;;
73776;SDS011;62088;50.240;2.696;2023-02-20T06:59:14;11.20;;;5.32;;
73776;SDS011;62088;50.240;2.696;2023-02-20T07:01:41;11.55;;;4.60;;
73776;SDS011;62088;50.240;2.696;2023-02-20T07:04:16;15.40;;;6.53;;
73776;SDS011;62088;50.240;2.696;2023-02-20T07:06:45;13.98;;;4.95;;
73776;SDS011;62088;50.240;2.696;2023-02-20T07:09:13;21.08;;;5.63;;
73776;SDS011;62088;50.240;2.696;2023-02-20T07:11:41;14.30;;;4.63;;
73776;SDS011;62088;50.240;2.696;2023-02-20T07:14:08;12.57;;;5.07;;
73776;SDS011;62088;50.240;2.696;2023-02-20T07:16:36;14.60;;;6.63;;
73776;SDS011;62088;50.240;2.696;2023-02-20T07:19:03;12.93;;;4.82;;
73776;SDS011;62088;50.240;2.696;2023-02-20T07:21:30;11.20;;;4.93;;
73776;SDS011;62088;50.240;2.696;2023-02-20T07:23:57;14.15;;;5.70;;
73776;SDS011;62088;50.240;2.696;2023-02-20T07:26:25;15.82;;;6.75;;
73776;SDS011;62088;50.240;2.696;2023-02-20T07:28:54;15.60;;;6.00;;
73776;SDS011;62088;50.240;2.696;2023-02-20T07:31:28;12.95;;;4.85;;
73776;SDS011;62088;50.240;2.696;2023-02-20T07:33:56;17.25;;;7.35;;
73776;SDS011;62088;50.240;2.696;2023-02-20T07:36:23;14.38;;;5.40;;
73776;SDS011;62088;50.240;2.696;2023-02-20T07:38:55;16.88;;;6.10;;
73776;SDS011;62088;50.240;2.696;2023-02-20T07:41:23;16.45;;;7.25;;
73776;SDS011;62088;50.240;2.696;2023-02-20T07:43:51;17.70;;;5.43;;
73776;SDS011;62088;50.240;2.696;2023-02-20T07:46:18;20.63;;;7.30;;
73776;SDS011;62088;50.240;2.696;2023-02-20T07:48:46;17.25;;;5.38;;
73776;SDS011;62088;50.240;2.696;2023-02-20T07:51:14;15.38;;;5.50;;
73776;SDS011;62088;50.240;2.696;2023-02-20T07:53:48;19.52;;;5.60;;
73776;SDS011;62088;50.240;2.696;2023-02-20T07:56:16;19.52;;;5.28;;
73776;SDS011;62088;50.240;2.696;2023-02-20T07:58:45;15.98;;;6.68;;
73776;SDS011;62088;50.240;2.696;2023-02-20T08:01:12;11.82;;;4.93;;
73776;SDS011;62088;50.240;2.696;2023-02-20T08:03:39;14.80;;;4.53;;
73776;SDS011;62088;50.240;2.696;2023-02-20T08:06:06;16.17;;;6.85;;
73776;SDS011;62088;50.240;2.696;2023-02-20T08:08:35;16.00;;;5.95;;
73776;SDS011;62088;50.240;2.696;2023-02-20T08:11:02;18.38;;;5.55;;
73776;SDS011;62088;50.240;2.696;2023-02-20T08:13:35;16.37;;;5.57;;
73776;SDS011;62088;50.240;2.696;2023-02-20T08:16:02;14.63;;;3.65;;
73776;SDS011;62088;50.240;2.696;2023-02-20T08:18:30;14.50;;;2.85;;
73776;SDS011;62088;50.240;2.696;2023-02-20T08:20:57;15.02;;;3.75;;
73776;SDS011;62088;50.240;2.696;2023-02-20T08:23:24;12.45;;;2.85;;
73776;SDS011;62088;50.240;2.696;2023-02-20T08:25:52;7.70;;;2.47;;
73776;SDS011;62088;50.240;2.696;2023-02-20T08:28:19;10.00;;;2.33;;
73776;SDS011;62088;50.240;2.696;2023-02-20T08:30:47;10.95;;;2.80;;
73776;SDS011;62088;50.240;2.696;2023-02-20T08:33:14;9.27;;;2.60;;
73776;SDS011;62088;50.240;2.696;2023-02-20T08:35:42;10.48;;;3.05;;
73776;SDS011;62088;50.240;2.696;2023-02-20T08:41:09;12.88;;;3.15;;
73776;SDS011;62088;50.240;2.696;2023-02-20T08:43:38;12.15;;;2.97;;
73776;SDS011;62088;50.240;2.696;2023-02-20T08:46:06;10.75;;;3.22;;
73776;SDS011;62088;50.240;2.696;2023-02-20T08:48:33;13.52;;;3.72;;
73776;SDS011;62088;50.240;2.696;2023-02-20T08:51:01;15.88;;;4.18;;
73776;SDS011;62088;50.240;2.696;2023-02-20T08:53:29;10.60;;;3.03;;
73776;SDS011;62088;50.240;2.696;2023-02-20T08:55:57;10.07;;;3.35;;
73776;SDS011;62088;50.240;2.696;2023-02-20T08:58:24;11.18;;;2.95;;
73776;SDS011;62088;50.240;2.696;2023-02-20T09:00:51;12.57;;;3.00;;
73776;SDS011;62088;50.240;2.696;2023-02-20T09:03:20;10.32;;;3.75;;
73776;SDS011;62088;50.240;2.696;2023-02-20T09:05:47;11.75;;;3.25;;
73776;SDS011;62088;50.240;2.696;2023-02-20T09:08:15;10.73;;;3.10;;
73776;SDS011;62088;50.240;2.696;2023-02-20T09:10:42;11.55;;;3.70;;
73776;SDS011;62088;50.240;2.696;2023-02-20T09:13:10;13.38;;;3.70;;
73776;SDS011;62088;50.240;2.696;2023-02-20T09:15:37;9.55;;;3.00;;
73776;SDS011;62088;50.240;2.696;2023-02-20T09:18:06;12.93;;;3.20;;
73776;SDS011;62088;50.240;2.696;2023-02-20T09:20:36;13.63;;;3.30;;
73776;SDS011;62088;50.240;2.696;2023-02-20T09:23:03;13.15;;;3.83;;
73776;SDS011;62088;50.240;2.696;2023-02-20T09:25:31;13.57;;;3.17;;
73776;SDS011;62088;50.240;2.696;2023-02-20T09:27:58;16.20;;;4.05;;
73776;SDS011;62088;50.240;2.696;2023-02-20T09:30:25;10.25;;;2.83;;
73776;SDS011;62088;50.240;2.696;2023-02-20T09:32:53;11.95;;;3.17;;
73776;SDS011;62088;50.240;2.696;2023-02-20T09:35:23;10.40;;;3.22;;
73776;SDS011;62088;50.240;2.696;2023-02-20T09:37:53;17.63;;;3.47;;
73776;SDS011;62088;50.240;2.696;2023-02-20T09:40:20;15.18;;;3.17;;
73776;SDS011;62088;50.240;2.696;2023-02-20T09:45:49;14.43;;;3.03;;
73776;SDS011;62088;50.240;2.696;2023-02-20T09:51:23;14.75;;;3.13;;
73776;SDS011;62088;50.240;2.696;2023-02-20T09:54:05;16.73;;;3.60;;
73776;SDS011;62088;50.240;2.696;2023-02-20T10:01:38;12.52;;;3.42;;
73776;SDS011;62088;50.240;2.696;2023-02-20T10:04:17;14.30;;;3.95;;
73776;SDS011;62088;50.240;2.696;2023-02-20T10:06:49;13.23;;;3.70;;
73776;SDS011;62088;50.240;2.696;2023-02-20T10:09:18;10.55;;;3.13;;
73776;SDS011;62088;50.240;2.696;2023-02-20T10:15:02;10.55;;;4.43;;
73776;SDS011;62088;50.240;2.696;2023-02-20T10:20:41;11.20;;;3.25;;
73776;SDS011;62088;50.240;2.696;2023-02-20T10:26:21;12.18;;;3.80;;
73776;SDS011;62088;50.240;2.696;2023-02-20T10:28:56;10.65;;;4.28;;
73776;SDS011;62088;50.240;2.696;2023-02-20T10:31:40;12.13;;;3.90;;
73776;SDS011;62088;50.240;2.696;2023-02-20T10:34:14;12.20;;;4.10;;
73776;SDS011;62088;50.240;2.696;2023-02-20T10:36:50;11.02;;;4.57;;
73776;SDS011;62088;50.240;2.696;2023-02-20T10:39:21;9.82;;;3.72;;
73776;SDS011;62088;50.240;2.696;2023-02-20T10:44:29;9.23;;;4.30;;
73776;SDS011;62088;50.240;2.696;2023-02-20T10:52:36;12.10;;;3.75;;
73776;SDS011;62088;50.240;2.696;2023-02-20T11:00:53;11.48;;;3.20;;
73776;SDS011;62088;50.240;2.696;2023-02-20T11:03:28;12.15;;;4.30;;
73776;SDS011;62088;50.240;2.696;2023-02-20T11:06:04;9.82;;;4.10;;
73776;SDS011;62088;50.240;2.696;2023-02-20T11:08:36;11.63;;;4.22;;
73776;SDS011;62088;50.240;2.696;2023-02-20T11:13:57;7.70;;;3.67;;
73776;SDS011;62088;50.240;2.696;2023-02-20T11:16:26;14.93;;;4.25;;
73776;SDS011;62088;50.240;2.696;2023-02-20T11:19:19;9.48;;;4.15;;
73776;SDS011;62088;50.240;2.696;2023-02-20T11:21:53;8.85;;;4.60;;
73776;SDS011;62088;50.240;2.696;2023-02-20T11:24:28;10.35;;;4.85;;
73776;SDS011;62088;50.240;2.696;2023-02-20T11:27:05;10.57;;;3.70;;
73776;SDS011;62088;50.240;2.696;2023-02-20T11:29:40;7.03;;;3.80;;
73776;SDS011;62088;50.240;2.696;2023-02-20T11:32:30;9.82;;;4.72;;
73776;SDS011;62088;50.240;2.696;2023-02-20T11:37:46;9.30;;;4.05;;
73776;SDS011;62088;50.240;2.696;2023-02-20T11:40:26;11.13;;;4.45;;
73776;SDS011;62088;50.240;2.696;2023-02-20T11:43:07;6.43;;;3.15;;
73776;SDS011;62088;50.240;2.696;2023-02-20T11:45:45;8.15;;;3.88;;
73776;SDS011;62088;50.240;2.696;2023-02-20T11:48:14;11.05;;;4.22;;
73776;SDS011;62088;50.240;2.696;2023-02-20T11:50:46;8.13;;;4.22;;
73776;SDS011;62088;50.240;2.696;2023-02-20T11:56:11;9.45;;;5.65;;
73776;SDS011;62088;50.240;2.696;2023-02-20T11:58:44;10.13;;;5.28;;
73776;SDS011;62088;50.240;2.696;2023-02-20T12:03:56;10.00;;;4.78;;
73776;SDS011;62088;50.240;2.696;2023-02-20T12:06:33;14.60;;;5.22;;
73776;SDS011;62088;50.240;2.696;2023-02-20T12:09:04;15.75;;;5.35;;
73776;SDS011;62088;50.240;2.696;2023-02-20T12:11:35;8.45;;;4.10;;
73776;SDS011;62088;50.240;2.696;2023-02-20T12:14:05;11.77;;;5.22;;
73776;SDS011;62088;50.240;2.696;2023-02-20T12:22:13;8.77;;;4.88;;
73776;SDS011;62088;50.240;2.696;2023-02-20T12:38:58;11.90;;;5.35;;
73776;SDS011;62088;50.240;2.696;2023-02-20T12:47:12;8.57;;;4.95;;
73776;SDS011;62088;50.240;2.696;2023-02-20T12:52:44;8.45;;;5.05;;
73776;SDS011;62088;50.240;2.696;2023-02-20T12:55:33;14.57;;;5.88;;
73776;SDS011;62088;50.240;2.696;2023-02-20T12:58:20;7.70;;;5.28;;
73776;SDS011;62088;50.240;2.696;2023-02-20T13:01:01;9.27;;;4.50;;
73776;SDS011;62088;50.240;2.696;2023-02-20T13:06:04;10.60;;;5.07;;
73776;SDS011;62088;50.240;2.696;2023-02-20T13:08:36;9.45;;;4.45;;
73776;SDS011;62088;50.240;2.696;2023-02-20T13:11:22;13.25;;;4.82;;
73776;SDS011;62088;50.240;2.696;2023-02-20T13:19:33;11.20;;;4.80;;
73776;SDS011;62088;50.240;2.696;2023-02-20T13:22:06;12.05;;;4.38;;
73776;SDS011;62088;50.240;2.696;2023-02-20T13:24:34;8.25;;;4.40;;
73776;SDS011;62088;50.240;2.696;2023-02-20T13:27:09;7.72;;;4.53;;
73776;SDS011;62088;50.240;2.696;2023-02-20T13:29:58;12.55;;;5.18;;
73776;SDS011;62088;50.240;2.696;2023-02-20T13:32:31;10.45;;;5.32;;
73776;SDS011;62088;50.240;2.696;2023-02-20T13:38:10;11.32;;;5.13;;
73776;SDS011;62088;50.240;2.696;2023-02-20T13:40:39;10.07;;;4.82;;
73776;SDS011;62088;50.240;2.696;2023-02-20T13:43:31;8.73;;;4.78;;
73776;SDS011;62088;50.240;2.696;2023-02-20T13:51:27;9.25;;;4.97;;
73776;SDS011;62088;50.240;2.696;2023-02-20T13:53:52;10.75;;;5.18;;
73776;SDS011;62088;50.240;2.696;2023-02-20T13:56:25;13.45;;;4.93;;
73776;SDS011;62088;50.240;2.696;2023-02-20T13:59:12;13.45;;;5.75;;
73776;SDS011;62088;50.240;2.696;2023-02-20T14:04:31;9.15;;;5.60;;
73776;SDS011;62088;50.240;2.696;2023-02-20T14:06:58;8.90;;;5.18;;
73776;SDS011;62088;50.240;2.696;2023-02-20T14:09:27;8.10;;;5.18;;
73776;SDS011;62088;50.240;2.696;2023-02-20T14:12:02;11.55;;;5.45;;
73776;SDS011;62088;50.240;2.696;2023-02-20T14:14:33;9.68;;;4.57;;
73776;SDS011;62088;50.240;2.696;2023-02-20T14:17:07;11.15;;;5.20;;
73776;SDS011;62088;50.240;2.696;2023-02-20T14:19:40;10.02;;;4.95;;
73776;SDS011;62088;50.240;2.696;2023-02-20T14:22:29;8.13;;;4.70;;
73776;SDS011;62088;50.240;2.696;2023-02-20T14:25:01;10.95;;;5.47;;
73776;SDS011;62088;50.240;2.696;2023-02-20T14:27:30;8.88;;;4.55;;
73776;SDS011;62088;50.240;2.696;2023-02-20T14:30:10;11.68;;;5.07;;
73776;SDS011;62088;50.240;2.696;2023-02-20T14:32:50;8.88;;;4.88;;
73776;SDS011;62088;50.240;2.696;2023-02-20T14:40:51;8.07;;;4.13;;
73776;SDS011;62088;50.240;2.696;2023-02-20T14:43:19;7.13;;;4.53;;
73776;SDS011;62088;50.240;2.696;2023-02-20T14:46:01;9.20;;;4.63;;
73776;SDS011;62088;50.240;2.696;2023-02-20T14:48:32;8.27;;;4.30;;
73776;SDS011;62088;50.240;2.696;2023-02-20T14:51:04;7.72;;;3.92;;
73776;SDS011;62088;50.240;2.696;2023-02-20T14:53:43;7.78;;;4.40;;
73776;SDS011;62088;50.240;2.696;2023-02-20T14:58:43;11.80;;;5.15;;
73776;SDS011;62088;50.240;2.696;2023-02-20T15:01:15;8.20;;;5.65;;
73776;SDS011;62088;50.240;2.696;2023-02-20T15:04:14;10.05;;;6.35;;
73776;SDS011;62088;50.240;2.696;2023-02-20T15:06:43;9.10;;;5.70;;
73776;SDS011;62088;50.240;2.696;2023-02-20T15:09:13;8.35;;;4.90;;
73776;SDS011;62088;50.240;2.696;2023-02-20T15:14:18;8.35;;;5.88;;
73776;SDS011;62088;50.240;2.696;2023-02-20T15:16:48;9.68;;;6.15;;
73776;SDS011;62088;50.240;2.696;2023-02-20T15:19:44;11.23;;;6.05;;
73776;SDS011;62088;50.240;2.696;2023-02-20T15:33:46;12.82;;;5.25;;
73776;SDS011;62088;50.240;2.696;2023-02-20T15:36:23;7.72;;;4.97;;
73776;SDS011;62088;50.240;2.696;2023-02-20T15:38:52;10.13;;;5.55;;
73776;SDS011;62088;50.240;2.696;2023-02-20T15:41:21;8.35;;;5.68;;
73776;SDS011;62088;50.240;2.696;2023-02-20T15:43:49;12.05;;;5.93;;
73776;SDS011;62088;50.240;2.696;2023-02-20T15:46:17;9.05;;;5.30;;
73776;SDS011;62088;50.240;2.696;2023-02-20T15:48:45;12.48;;;5.50;;
73776;SDS011;62088;50.240;2.696;2023-02-20T15:51:17;10.45;;;5.20;;
73776;SDS011;62088;50.240;2.696;2023-02-20T15:53:47;11.25;;;5.80;;
73776;SDS011;62088;50.240;2.696;2023-02-20T15:56:17;10.63;;;5.40;;
73776;SDS011;62088;50.240;2.696;2023-02-20T15:58:45;9.82;;;5.15;;
73776;SDS011;62088;50.240;2.696;2023-02-20T16:01:13;7.20;;;5.38;;
73776;SDS011;62088;50.240;2.696;2023-02-20T16:03:42;8.93;;;5.13;;
73776;SDS011;62088;50.240;2.696;2023-02-20T16:06:19;9.77;;;5.65;;
73776;SDS011;62088;50.240;2.696;2023-02-20T16:08:47;8.48;;;5.03;;
73776;SDS011;62088;50.240;2.696;2023-02-20T16:11:16;9.65;;;5.32;;
73776;SDS011;62088;50.240;2.696;2023-02-20T16:13:45;9.07;;;4.88;;
73776;SDS011;62088;50.240;2.696;2023-02-20T16:16:19;6.68;;;4.45;;
73776;SDS011;62088;50.240;2.696;2023-02-20T16:18:50;8.77;;;4.82;;
73776;SDS011;62088;50.240;2.696;2023-02-20T16:21:20;11.82;;;5.20;;
73776;SDS011;62088;50.240;2.696;2023-02-20T16:23:49;9.00;;;5.25;;
73776;SDS011;62088;50.240;2.696;2023-02-20T16:26:17;8.27;;;4.90;;
73776;SDS011;62088;50.240;2.696;2023-02-20T16:29:12;9.25;;;5.05;;
73776;SDS011;62088;50.240;2.696;2023-02-20T16:34:26;11.00;;;4.25;;
73776;SDS011;62088;50.240;2.696;2023-02-20T16:36:58;8.00;;;4.90;;
73776;SDS011;62088;50.240;2.696;2023-02-20T16:39:26;8.45;;;6.07;;
73776;SDS011;62088;50.240;2.696;2023-02-20T16:41:53;9.07;;;5.63;;
73776;SDS011;62088;50.240;2.696;2023-02-20T16:44:27;8.73;;;5.30;;
73776;SDS011;62088;50.240;2.696;2023-02-20T16:47:14;8.18;;;4.93;;
73776;SDS011;62088;50.240;2.696;2023-02-20T16:49:43;8.75;;;5.05;;
73776;SDS011;62088;50.240;2.696;2023-02-20T16:52:12;10.32;;;5.97;;
73776;SDS011;62088;50.240;2.696;2023-02-20T16:54:51;9.65;;;5.75;;
73776;SDS011;62088;50.240;2.696;2023-02-20T16:57:20;9.05;;;5.00;;
73776;SDS011;62088;50.240;2.696;2023-02-20T16:59:49;8.93;;;5.03;;
73776;SDS011;62088;50.240;2.696;2023-02-20T17:02:23;7.47;;;5.57;;
73776;SDS011;62088;50.240;2.696;2023-02-20T17:04:57;9.35;;;5.43;;
73776;SDS011;62088;50.240;2.696;2023-02-20T17:07:25;9.38;;;5.30;;
73776;SDS011;62088;50.240;2.696;2023-02-20T17:09:52;11.68;;;5.63;;
73776;SDS011;62088;50.240;2.696;2023-02-20T17:12:21;8.93;;;5.80;;
73776;SDS011;62088;50.240;2.696;2023-02-20T17:14:49;12.02;;;5.85;;
73776;SDS011;62088;50.240;2.696;2023-02-20T17:17:19;11.63;;;5.68;;
73776;SDS011;62088;50.240;2.696;2023-02-20T17:19:47;11.20;;;6.60;;
73776;SDS011;62088;50.240;2.696;2023-02-20T17:22:18;10.65;;;6.20;;
73776;SDS011;62088;50.240;2.696;2023-02-20T17:24:46;10.75;;;6.32;;
73776;SDS011;62088;50.240;2.696;2023-02-20T17:27:13;11.95;;;6.25;;
73776;SDS011;62088;50.240;2.696;2023-02-20T17:29:41;10.15;;;6.15;;
73776;SDS011;62088;50.240;2.696;2023-02-20T17:32:09;8.50;;;6.35;;
73776;SDS011;62088;50.240;2.696;2023-02-20T17:34:37;9.20;;;6.35;;
73776;SDS011;62088;50.240;2.696;2023-02-20T17:37:05;10.18;;;5.30;;